Time;durP1;ratioP1;P1;durP2;ratioP2;P2;SDS_P1;SDS_P2;PMS_P1;PMS_P2;Temp;Humidity;BMP_temperature;BMP_pressure;BME280_temperature;BME280_humidity;BME280_pressure;Samples;Min_cycle;Max_cycle;Signal;HPM_P1;HPM_P2
2022/06/16 00:02:09;;;;;;;4.83;3.12;;;;;;;12.94;85.79;100382.41;1790547;80;21456;-71
2022/06/16 00:04:37;;;;;;;3.58;1.77;;;;;;;12.92;85.49;100384.27;1762640;80;21086;-71
2022/06/16 00:07:05;;;;;;;7.12;2.87;;;;;;;12.91;85.18;100382.56;1790354;80;21047;-70
2022/06/16 00:09:34;;;;;;;11.53;4.25;;;;;;;12.91;85.06;100390.48;1790561;80;21064;-72
2022/06/16 00:12:01;;;;;;;6.20;3.02;;;;;;;12.89;85.03;100387.90;1790581;80;21060;-71
2022/06/16 00:14:29;;;;;;;4.95;2.92;;;;;;;12.88;85.23;100382.66;1790496;80;21063;-71
2022/06/16 00:16:58;;;;;;;5.40;3.17;;;;;;;12.85;85.32;100384.12;1790272;80;21106;-72
2022/06/16 00:19:25;;;;;;;5.65;3.05;;;;;;;12.82;85.49;100386.91;1790271;80;21020;-70
2022/06/16 00:21:52;;;;;;;7.05;3.47;;;;;;;12.78;85.64;100387.02;1783309;80;21046;-71
2022/06/16 00:24:26;;;;;;;6.72;2.83;;;;;;;12.73;85.99;100375.80;1779323;80;21036;-71
2022/06/16 00:26:50;;;;;;;7.33;3.37;;;;;;;12.71;86.53;100381.59;1778968;80;21540;-71
2022/06/16 00:29:16;;;;;;;5.55;3.17;;;;;;;12.68;87.21;100378.24;1779368;80;22154;-71
2022/06/16 00:31:43;;;;;;;7.03;3.35;;;;;;;12.64;87.65;100377.50;1779116;80;21084;-72
2022/06/16 00:34:10;;;;;;;5.92;3.50;;;;;;;12.61;88.11;100374.99;1778693;80;21036;-71
2022/06/16 00:36:38;;;;;;;6.33;3.27;;;;;;;12.58;88.48;100372.45;1778775;80;21088;-70
2022/06/16 00:39:06;;;;;;;4.40;3.37;;;;;;;12.56;88.51;100374.30;1778729;80;21064;-72
2022/06/16 00:41:33;;;;;;;4.78;3.15;;;;;;;12.52;88.58;100375.38;1778763;80;21113;-71
2022/06/16 00:44:23;;;;;;;3.85;2.65;;;;;;;12.48;88.67;100379.06;1778542;80;21041;-70
2022/06/16 00:46:51;;;;;;;3.98;2.80;;;;;;;12.45;89.06;100380.05;1778760;80;21573;-71
2022/06/16 00:49:19;;;;;;;4.67;2.42;;;;;;;12.38;89.73;100382.54;1778697;80;20993;-69
2022/06/16 00:51:50;;;;;;;4.15;2.77;;;;;;;12.32;90.29;100388.91;1778711;80;21576;-71
2022/06/16 00:54:29;;;;;;;4.55;3.37;;;;;;;12.26;91.01;100389.17;1778859;80;22030;-72
2022/06/16 00:56:58;;;;;;;6.60;3.47;;;;;;;12.20;91.56;100390.73;1778787;80;21100;-69
2022/06/16 00:59:25;;;;;;;4.72;3.37;;;;;;;12.13;91.73;100395.86;1778936;80;20993;-72
2022/06/16 01:01:52;;;;;;;6.97;3.98;;;;;;;12.07;91.91;100394.77;1778686;80;21041;-71
2022/06/16 01:07:09;;;;;;;6.10;3.15;;;;;;;11.98;92.42;100390.70;1778684;80;21148;-72
2022/06/16 01:09:37;;;;;;;4.78;3.62;;;;;;;11.94;92.93;100386.48;1778804;80;21073;-71
2022/06/16 01:15:34;;;;;;;6.15;3.15;;;;;;;11.88;94.24;100383.59;1778498;80;21055;-71
2022/06/16 01:18:36;;;;;;;11.22;3.60;;;;;;;11.87;94.61;100388.49;1778549;80;21103;-70
2022/06/16 01:21:38;;;;;;;5.92;3.70;;;;;;;11.78;94.97;100386.17;1779111;80;26352;-70
2022/06/16 01:24:33;;;;;;;5.50;2.98;;;;;;;11.78;95.01;100388.81;1766735;80;21064;-70
2022/06/16 01:27:51;;;;;;;8.05;3.55;;;;;;;11.74;95.58;100388.52;1784433;80;21042;-69
2022/06/16 01:30:22;;;;;;;5.03;3.33;;;;;;;11.71;96.10;100388.61;1784366;80;21044;-70
2022/06/16 01:33:29;;;;;;;9.23;3.55;;;;;;;11.69;96.73;100390.47;1784423;80;21083;-71
2022/06/16 01:36:08;;;;;;;7.42;3.55;;;;;;;11.65;97.12;100393.67;1784519;80;21092;-70
2022/06/16 01:38:47;;;;;;;13.98;4.45;;;;;;;11.60;97.73;100388.17;1757061;80;21041;-72
2022/06/16 01:41:24;;;;;;;5.58;3.52;;;;;;;11.52;98.42;100385.34;1784426;80;21084;-70
2022/06/16 01:44:12;;;;;;;5.25;3.42;;;;;;;11.50;98.84;100388.95;1784530;80;21486;-73
2022/06/16 01:46:40;;;;;;;4.78;3.35;;;;;;;11.48;99.28;100387.70;1754118;81;21028;-71
2022/06/16 01:49:33;;;;;;;8.55;3.85;;;;;;;11.39;99.82;100388.05;1753558;81;21756;-71
2022/06/16 01:52:12;;;;;;;11.78;3.83;;;;;;;11.45;99.77;100387.80;1753498;81;21509;-70
2022/06/16 01:54:49;;;;;;;8.55;3.50;;;;;;;11.33;100.00;100392.21;1753465;81;21608;-71
2022/06/16 01:57:22;;;;;;;10.53;4.10;;;;;;;11.31;100.00;100384.81;1753572;81;21028;-71
2022/06/16 02:00:04;;;;;;;7.40;4.03;;;;;;;11.30;100.00;100389.70;1753459;81;21119;-71
2022/06/16 02:02:34;;;;;;;7.37;3.90;;;;;;;11.28;100.00;100383.61;1753380;81;21945;-71
2022/06/16 02:05:06;;;;;;;5.53;3.90;;;;;;;11.30;100.00;100390.55;1753429;81;21052;-71
2022/06/16 02:07:41;;;;;;;6.80;3.45;;;;;;;11.32;100.00;100387.87;1753678;81;21607;-71
2022/06/16 02:10:22;;;;;;;8.15;4.20;;;;;;;11.31;100.00;100396.67;1779189;80;21102;-71
2022/06/16 02:12:55;;;;;;;4.37;3.80;;;;;;;11.29;100.00;100391.91;1756226;80;21049;-71
2022/06/16 02:15:50;;;;;;;4.72;3.35;;;;;;;11.28;100.00;100391.52;1758426;80;21245;-70
2022/06/16 02:18:21;;;;;;;6.72;3.75;;;;;;;11.28;100.00;100396.80;1784380;80;21033;-72
2022/06/16 02:21:00;;;;;;;14.93;3.70;;;;;;;11.27;100.00;100394.62;1784740;80;21032;-71
2022/06/16 02:23:26;;;;;;;8.95;4.22;;;;;;;11.28;100.00;100400.75;1778776;80;21080;-70
2022/06/16 02:25:55;;;;;;;9.93;4.30;;;;;;;11.29;100.00;100406.41;1778776;80;21001;-69
2022/06/16 02:28:22;;;;;;;8.05;3.87;;;;;;;11.31;100.00;100400.63;1778902;80;21862;-70
2022/06/16 02:31:23;;;;;;;7.25;3.77;;;;;;;11.36;100.00;100407.05;1778785;80;20990;-71
2022/06/16 02:34:26;;;;;;;7.58;3.90;;;;;;;11.39;100.00;100414.41;1778793;80;21073;-69
2022/06/16 02:37:15;;;;;;;6.03;4.03;;;;;;;11.43;100.00;100419.95;1778592;80;21013;-69
2022/06/16 02:39:56;;;;;;;6.40;3.50;;;;;;;11.49;100.00;100418.43;1778476;80;21005;-70
2022/06/16 02:42:32;;;;;;;10.78;4.15;;;;;;;11.55;100.00;100412.94;1778729;80;21564;-71
2022/06/16 02:45:36;;;;;;;8.23;3.98;;;;;;;11.63;100.00;100419.70;1778591;80;21084;-70
2022/06/16 02:48:14;;;;;;;10.38;4.10;;;;;;;11.70;100.00;100414.60;1778712;80;21080;-70
2022/06/16 02:50:54;;;;;;;4.78;3.70;;;;;;;11.80;100.00;100418.64;1748818;80;21557;-70
2022/06/16 02:54:05;;;;;;;4.90;3.65;;;;;;;11.90;100.00;100418.71;1778885;80;21028;-70
2022/06/16 02:57:00;;;;;;;8.93;3.70;;;;;;;12.02;100.00;100426.62;1777629;80;21629;-71
2022/06/16 02:59:38;;;;;;;6.33;4.05;;;;;;;12.15;100.00;100425.70;1778744;80;21032;-71
2022/06/16 03:02:16;;;;;;;9.15;4.85;;;;;;;12.30;100.00;100417.16;1777431;80;21491;-70
2022/06/16 03:04:50;;;;;;;7.78;4.17;;;;;;;12.44;99.63;100423.68;1778909;80;21030;-70
2022/06/16 03:07:20;;;;;;;8.03;5.15;;;;;;;12.61;99.09;100421.23;1778687;80;21025;-71
2022/06/16 03:09:48;;;;;;;17.85;5.08;;;;;;;12.79;98.46;100419.16;1778052;80;21090;-70
2022/06/16 03:12:16;;;;;;;15.88;5.50;;;;;;;12.97;97.84;100419.28;1778589;80;21549;-71
2022/06/16 03:14:44;;;;;;;10.80;5.58;;;;;;;13.18;97.21;100422.36;1778664;80;21084;-70
2022/06/16 03:17:11;;;;;;;8.80;5.37;;;;;;;13.41;96.25;100417.85;1778806;80;21061;-70
2022/06/16 03:19:38;;;;;;;12.18;5.90;;;;;;;13.63;94.99;100418.62;1779137;80;21553;-70
2022/06/16 03:22:05;;;;;;;10.40;5.40;;;;;;;13.85;94.07;100424.28;1780351;80;21576;-70
2022/06/16 03:24:33;;;;;;;11.40;6.20;;;;;;;14.06;92.96;100417.13;1784400;80;21049;-71
2022/06/16 03:26:59;;;;;;;11.97;5.40;;;;;;;14.28;91.82;100416.95;1784601;80;21087;-70
2022/06/16 03:29:28;;;;;;;13.70;5.17;;;;;;;14.50;90.87;100419.92;1784244;80;21032;-68
2022/06/16 03:31:56;;;;;;;9.28;4.90;;;;;;;14.70;89.43;100415.86;1784291;80;21020;-69
2022/06/16 03:34:25;;;;;;;11.35;5.45;;;;;;;14.92;88.45;100412.12;1784724;80;21116;-70
2022/06/16 03:36:52;;;;;;;9.35;5.03;;;;;;;15.11;87.00;100410.23;1784046;80;21064;-71
2022/06/16 03:39:22;;;;;;;13.08;5.83;;;;;;;15.34;85.72;100408.19;1783235;80;21726;-70
2022/06/16 03:41:51;;;;;;;10.43;4.33;;;;;;;15.56;84.43;100415.41;1784224;80;21927;-70
2022/06/16 03:44:18;;;;;;;12.78;5.62;;;;;;;15.80;82.92;100415.06;1781120;80;21083;-71
2022/06/16 03:46:45;;;;;;;9.85;4.87;;;;;;;16.03;81.59;100413.33;1753149;81;21506;-71
2022/06/16 03:49:13;;;;;;;12.15;5.10;;;;;;;16.29;80.19;100413.70;1753158;81;21024;-72
2022/06/16 03:51:44;;;;;;;12.85;5.35;;;;;;;16.53;78.67;100412.28;1753377;81;21100;-70
2022/06/16 03:54:13;;;;;;;12.35;5.50;;;;;;;16.77;77.33;100413.14;1753129;81;21055;-71
2022/06/16 03:56:42;;;;;;;8.65;4.65;;;;;;;17.03;75.89;100408.14;1753543;81;21103;-71
2022/06/16 03:59:11;;;;;;;12.30;4.87;;;;;;;17.27;74.79;100401.33;1767137;80;21102;-69
2022/06/16 04:01:38;;;;;;;7.70;4.20;;;;;;;17.53;73.54;100408.20;1784196;80;21517;-70
2022/06/16 04:04:05;;;;;;;11.28;4.35;;;;;;;17.74;72.06;100406.89;1784343;80;21111;-72
2022/06/16 04:06:43;;;;;;;13.85;4.90;;;;;;;17.93;70.64;100404.43;1782993;80;21036;-71
2022/06/16 04:09:09;;;;;;;12.82;4.40;;;;;;;18.14;69.37;100403.05;1784342;80;21036;-70
2022/06/16 04:11:37;;;;;;;7.95;3.98;;;;;;;18.36;68.32;100403.86;1784694;80;21134;-71
2022/06/16 04:14:11;;;;;;;6.80;3.37;;;;;;;18.59;67.74;100402.35;1784271;80;21009;-71
2022/06/16 04:16:58;;;;;;;6.27;3.70;;;;;;;18.86;66.19;100406.37;1784743;80;21064;-70
2022/06/16 04:19:26;;;;;;;8.43;4.12;;;;;;;19.09;63.64;100410.60;1783911;80;21033;-71
2022/06/16 04:21:54;;;;;;;6.58;3.30;;;;;;;19.24;62.64;100403.37;1783886;80;21068;-71
2022/06/16 04:24:23;;;;;;;4.55;3.02;;;;;;;19.42;61.84;100410.11;1777056;80;21139;-70
2022/06/16 04:26:54;;;;;;;6.50;3.52;;;;;;;19.61;60.61;100403.48;1778664;80;21012;-70
2022/06/16 04:29:23;;;;;;;6.78;3.37;;;;;;;19.79;59.51;100412.91;1778672;80;21080;-71
2022/06/16 04:31:51;;;;;;;10.23;3.75;;;;;;;19.97;58.59;100409.41;1779075;80;28155;-72
2022/06/16 04:34:18;;;;;;;5.90;3.27;;;;;;;20.17;57.98;100413.28;1778887;80;21849;-71
2022/06/16 04:36:47;;;;;;;5.12;3.27;;;;;;;20.38;57.37;100404.66;1778783;80;21796;-73
2022/06/16 04:39:15;;;;;;;6.55;3.10;;;;;;;20.59;56.00;100404.92;1778859;80;21057;-72
2022/06/16 04:41:44;;;;;;;5.03;2.85;;;;;;;20.76;55.82;100402.34;1778630;80;21016;-71
2022/06/16 04:44:12;;;;;;;6.33;3.22;;;;;;;21.02;54.34;100406.55;1778835;80;21016;-70
2022/06/16 04:46:39;;;;;;;5.45;3.08;;;;;;;21.19;53.18;100405.73;1778877;80;21030;-70
2022/06/16 04:49:06;;;;;;;7.03;3.00;;;;;;;21.42;53.08;100410.69;1778909;80;22243;-72
2022/06/16 04:51:42;;;;;;;4.75;3.05;;;;;;;21.49;52.92;100414.13;1778839;80;21062;-70
2022/06/16 04:54:11;;;;;;;6.58;3.27;;;;;;;21.72;51.46;100411.47;1778948;80;21064;-72
2022/06/16 04:56:56;;;;;;;5.85;3.12;;;;;;;21.92;51.42;100413.38;1778749;80;21041;-71
2022/06/16 04:59:44;;;;;;;5.92;3.42;;;;;;;22.13;50.46;100422.02;1778465;80;21053;-71
2022/06/16 05:02:19;;;;;;;7.92;2.90;;;;;;;22.27;49.42;100415.10;1777151;80;21207;-73
2022/06/16 05:04:51;;;;;;;8.40;3.37;;;;;;;22.38;48.99;100417.77;1778538;80;21057;-72
2022/06/16 05:07:31;;;;;;;5.58;2.87;;;;;;;22.47;48.82;100416.63;1776935;80;21013;-71
2022/06/16 05:10:09;;;;;;;5.75;2.77;;;;;;;22.63;48.53;100415.72;1774771;80;20977;-71
2022/06/16 05:12:39;;;;;;;5.03;2.58;;;;;;;22.89;47.61;100411.34;1776788;80;21021;-72
2022/06/16 05:15:08;;;;;;;6.00;2.70;;;;;;;23.07;46.59;100413.84;1772526;80;21895;-72
2022/06/16 05:17:54;;;;;;;11.65;3.25;;;;;;;23.25;45.89;100413.61;1778745;80;21052;-71
2022/06/16 05:20:27;;;;;;;5.92;2.70;;;;;;;23.36;45.04;100415.89;1776981;80;22014;-71
2022/06/16 05:22:56;;;;;;;6.47;2.77;;;;;;;23.48;45.18;100418.84;1776004;80;21044;-72
2022/06/16 05:25:42;;;;;;;5.70;2.60;;;;;;;23.66;44.08;100414.55;1784580;80;21037;-71
2022/06/16 05:28:11;;;;;;;3.55;2.55;;;;;;;23.85;43.92;100418.34;1781171;80;22094;-71
2022/06/16 05:30:47;;;;;;;6.78;2.58;;;;;;;24.13;43.25;100422.62;1784426;80;21053;-70
2022/06/16 05:33:16;;;;;;;5.00;2.72;;;;;;;24.18;42.28;100413.63;1779471;80;21576;-71
2022/06/16 05:36:02;;;;;;;3.85;2.33;;;;;;;24.31;42.83;100416.92;1783282;80;21124;-72
2022/06/16 05:38:38;;;;;;;7.42;2.42;;;;;;;24.57;42.40;100414.61;1783575;80;21075;-71
2022/06/16 05:41:23;;;;;;;3.83;1.90;;;;;;;24.78;41.18;100405.05;1784662;80;21348;-71
2022/06/16 05:43:51;;;;;;;4.85;2.10;;;;;;;24.94;41.06;100410.34;1754551;80;21076;-71
2022/06/16 05:46:23;;;;;;;;;;;;;;;24.98;40.38;100407.72;1745743;81;21083;-71
2022/06/16 05:48:52;;;;;;;4.42;2.37;;;;;;;25.07;40.77;100412.25;1745300;81;20204;-71
2022/06/16 05:51:19;;;;;;;4.65;2.60;;;;;;;25.28;40.28;100414.33;1753822;81;21025;-72
2022/06/16 05:53:57;;;;;;;6.62;2.50;;;;;;;25.43;40.22;100419.25;1752606;81;21305;-72
2022/06/16 05:56:26;;;;;;;12.47;1.90;;;;;;;25.66;39.40;100407.11;1753222;81;21943;-72
2022/06/16 05:58:52;;;;;;;4.65;2.10;;;;;;;25.83;38.97;100405.47;1753438;81;21036;-72
2022/06/16 06:01:19;;;;;;;2.87;2.00;;;;;;;26.27;38.21;100410.23;1753521;81;21538;-71
2022/06/16 06:03:47;;;;;;;4.22;1.37;;;;;;;26.48;37.62;100409.95;1752850;81;21063;-72
2022/06/16 06:06:14;;;;;;;2.30;1.40;;;;;;;26.61;34.25;100409.63;1753397;81;21553;-72
2022/06/16 06:17:14;;;;;;;1.98;1.20;;;;;;;25.84;34.11;100410.39;1753764;81;21052;-72
2022/06/16 06:19:41;;;;;;;1.60;1.10;;;;;;;25.74;33.98;100412.63;1753124;81;21095;-72
2022/06/16 06:22:15;;;;;;;2.95;1.32;;;;;;;25.75;34.67;100408.91;1753074;81;21099;-71
2022/06/16 06:24:48;;;;;;;5.20;1.57;;;;;;;25.93;35.11;100410.88;1753189;81;21071;-72
2022/06/16 06:27:31;;;;;;;11.20;1.95;;;;;;;26.13;35.02;100420.54;1751701;81;21477;-71
2022/06/16 06:29:58;;;;;;;1.30;1.20;;;;;;;26.23;34.12;100422.36;1752972;81;21095;-72
2022/06/16 06:32:25;;;;;;;2.30;1.30;;;;;;;26.35;34.19;100417.09;1753307;81;21117;-73
2022/06/16 06:34:52;;;;;;;6.95;1.42;;;;;;;26.42;33.89;100419.53;1753251;81;21540;-71
2022/06/16 06:37:22;;;;;;;2.52;1.15;;;;;;;26.65;33.75;100429.42;1753393;81;21091;-71
2022/06/16 06:39:50;;;;;;;;;;;;;;;26.87;32.56;100421.36;1756266;81;21059;-72
2022/06/16 06:42:17;;;;;;;2.75;1.00;;;;;;;27.02;32.59;100412.70;1753068;81;20148;-72
2022/06/16 06:44:43;;;;;;;2.77;1.32;;;;;;;27.10;31.67;100423.55;1734292;80;22379;-71
2022/06/16 06:47:24;;;;;;;5.05;1.10;;;;;;;27.09;31.59;100420.01;1784163;80;21068;-71
2022/06/16 06:49:50;;;;;;;2.62;1.15;;;;;;;27.20;31.94;100415.73;1784415;80;21104;-71
2022/06/16 06:52:18;;;;;;;2.25;1.22;;;;;;;27.28;32.15;100413.59;1784104;80;22207;-71
2022/06/16 06:54:45;;;;;;;2.60;1.10;;;;;;;27.20;32.46;100418.95;1784522;80;21037;-72
2022/06/16 06:57:16;;;;;;;2.92;1.15;;;;;;;27.32;32.11;100413.63;1784283;80;21164;-72
2022/06/16 06:59:44;;;;;;;5.00;1.32;;;;;;;27.58;31.91;100410.06;1783139;80;21556;-71
2022/06/16 07:02:12;;;;;;;2.70;1.10;;;;;;;27.77;31.41;100418.47;1784709;80;21111;-72
2022/06/16 07:04:40;;;;;;;6.65;1.37;;;;;;;27.82;30.73;100411.55;1784101;80;21013;-74
2022/06/16 07:07:11;;;;;;;3.27;1.15;;;;;;;27.97;30.86;100410.96;1784634;80;21537;-71
2022/06/16 07:09:39;;;;;;;3.35;1.20;;;;;;;28.08;30.24;100412.02;1784509;80;21033;-71
2022/06/16 07:12:13;;;;;;;2.87;0.90;;;;;;;28.25;30.13;100408.85;1784332;80;21064;-72
2022/06/16 07:14:36;;;;;;;3.58;0.90;;;;;;;28.38;29.74;100408.39;1783870;80;21036;-72
2022/06/16 07:17:03;;;;;;;1.90;1.00;;;;;;;28.40;29.87;100399.59;1784802;80;21536;-72
2022/06/16 07:19:33;;;;;;;8.80;1.30;;;;;;;28.64;29.03;100407.80;1784666;80;21080;-71
2022/06/16 07:21:57;;;;;;;2.08;0.90;;;;;;;28.88;29.11;100407.48;1784064;80;21102;-72
2022/06/16 07:24:24;;;;;;;4.92;1.10;;;;;;;29.00;27.45;100403.40;1780324;80;21530;-70
2022/06/16 07:26:50;;;;;;;1.98;1.00;;;;;;;28.83;28.02;100407.14;1778643;80;21021;-72
2022/06/16 07:29:18;;;;;;;5.40;1.10;;;;;;;28.91;28.12;100397.64;1778544;80;21033;-73
2022/06/16 07:31:45;;;;;;;2.25;0.98;;;;;;;29.09;27.75;100399.37;1778826;80;21036;-72
2022/06/16 07:34:12;;;;;;;2.55;0.98;;;;;;;29.16;28.05;100400.38;1778811;80;21278;-72
2022/06/16 07:36:38;;;;;;;6.10;1.10;;;;;;;29.25;27.44;100399.35;1778598;80;21025;-72
2022/06/16 07:39:05;;;;;;;6.78;1.55;;;;;;;29.31;27.48;100404.59;1778939;80;21628;-74
2022/06/16 07:41:36;;;;;;;2.67;1.30;;;;;;;29.27;27.94;100400.03;1778705;80;20997;-71
2022/06/16 07:44:10;;;;;;;2.30;1.20;;;;;;;29.37;27.63;100390.34;1779014;80;20981;-71
2022/06/16 07:46:39;;;;;;;5.05;1.65;;;;;;;29.41;27.87;100394.41;1748190;82;21173;-72
2022/06/16 07:49:08;;;;;;;8.68;1.70;;;;;;;29.45;27.53;100392.53;1748045;82;21014;-71
2022/06/16 07:51:35;;;;;;;2.53;1.40;;;;;;;29.70;26.97;100392.47;1747831;82;21538;-72
2022/06/16 07:54:04;;;;;;;4.83;1.25;;;;;;;29.82;25.92;100388.38;1747855;82;21738;-71
2022/06/16 07:56:30;;;;;;;3.92;1.20;;;;;;;29.75;26.27;100388.75;1748152;82;21040;-72
2022/06/16 07:58:57;;;;;;;2.12;1.25;;;;;;;29.79;26.34;100392.78;1747811;82;21128;-71
2022/06/16 08:01:24;;;;;;;1.92;1.17;;;;;;;29.94;26.19;100392.06;1748123;82;21099;-71
2022/06/16 08:03:50;;;;;;;4.80;1.40;;;;;;;30.27;26.32;100385.45;1748024;82;21124;-72
2022/06/16 08:06:20;;;;;;;2.35;1.15;;;;;;;30.49;25.40;100388.39;1748207;82;21060;-73
2022/06/16 08:08:47;;;;;;;6.20;1.30;;;;;;;30.59;24.96;100383.55;1748132;82;21040;-72
2022/06/16 08:13:59;;;;;;;12.45;2.47;;;;;;;30.72;24.73;100381.08;1747997;82;21014;-73
2022/06/16 08:16:30;;;;;;;17.05;2.45;;;;;;;30.35;25.15;100397.32;1748016;82;20997;-73
2022/06/16 08:18:58;;;;;;;;;;;;;;;30.35;25.15;100397.32;1750696;82;21545;-73
2022/06/16 08:21:24;;;;;;;3.10;1.27;;;;;;;30.25;25.16;100394.78;1748068;82;20183;-72
2022/06/16 08:23:53;;;;;;;4.08;1.25;;;;;;;30.45;24.78;100382.98;1747921;81;21517;-72
2022/06/16 08:26:20;;;;;;;3.02;1.62;;;;;;;30.63;25.18;100386.24;1747860;82;21621;-71
2022/06/16 08:28:47;;;;;;;5.40;1.67;;;;;;;30.56;25.57;100386.64;1748187;82;21040;-73
2022/06/16 08:31:13;;;;;;;3.50;1.80;;;;;;;30.44;25.71;100385.38;1747893;82;21053;-72
2022/06/16 08:33:40;;;;;;;3.40;1.37;;;;;;;30.51;25.21;100378.19;1748032;82;21096;-71
2022/06/16 08:36:08;;;;;;;4.22;1.42;;;;;;;30.38;25.98;100379.30;1719042;82;21140;-72
2022/06/16 08:38:35;;;;;;;3.00;1.60;;;;;;;30.38;25.98;100379.30;1748259;82;20998;-73
2022/06/16 08:41:13;;;;;;;8.75;1.70;;;;;;;30.50;26.17;100373.77;1747922;82;21072;-71
2022/06/16 08:44:03;;;;;;;3.33;1.80;;;;;;;30.57;25.38;100374.73;1747916;82;21937;-73
2022/06/16 08:46:37;;;;;;;3.17;1.37;;;;;;;30.24;25.09;100374.92;1748050;82;21052;-72
2022/06/16 08:49:39;;;;;;;7.08;1.90;;;;;;;29.67;25.87;100369.73;1747978;82;21181;-71
2022/06/16 08:52:28;;;;;;;3.25;1.50;;;;;;;29.67;25.87;100369.73;1742903;82;21637;-72
2022/06/16 08:55:17;;;;;;;4.03;1.80;;;;;;;30.08;25.55;100377.73;1747976;82;21028;-71
2022/06/16 08:58:02;;;;;;;8.10;2.20;;;;;;;30.72;24.96;100356.61;1748035;82;21060;-71
2022/06/16 09:00:33;;;;;;;6.67;2.22;;;;;;;30.72;24.96;100356.61;1747989;82;21072;-72
2022/06/16 09:03:09;;;;;;;4.25;2.37;;;;;;;30.55;24.89;100363.19;1748061;82;21572;-72
2022/06/16 09:05:53;;;;;;;3.65;1.87;;;;;;;30.55;24.89;100363.19;1748108;82;21060;-71
2022/06/16 09:08:54;;;;;;;6.42;1.82;;;;;;;30.50;25.26;100369.17;1747408;82;21053;-71
2022/06/16 09:11:52;;;;;;;4.75;2.27;;;;;;;30.33;25.29;100368.12;1748089;82;21029;-72
2022/06/16 09:17:44;;;;;;;3.92;1.60;;;;;;;30.10;25.00;100364.83;1723162;82;21108;-72
2022/06/16 09:20:27;;;;;;;4.50;1.50;;;;;;;30.08;25.08;100356.01;1748185;82;21104;-72
2022/06/16 09:23:40;;;;;;;7.22;2.05;;;;;;;30.35;25.72;100348.42;1747870;82;21072;-71
2022/06/16 09:26:37;;;;;;;5.28;2.08;;;;;;;30.35;25.72;100348.42;1747939;82;21165;-73
2022/06/16 09:29:10;;;;;;;3.33;1.70;;;;;;;30.05;25.92;100359.93;1747746;82;21130;-71
2022/06/16 09:31:43;;;;;;;3.77;1.65;;;;;;;29.60;26.67;100364.67;1747791;82;21584;-71
2022/06/16 09:34:39;;;;;;;4.12;1.77;;;;;;;29.26;27.05;100368.48;1747717;82;21084;-70
2022/06/16 09:37:11;;;;;;;4.45;1.50;;;;;;;28.98;27.39;100366.13;1747796;82;21069;-71
2022/06/16 09:39:41;;;;;;;2.22;1.35;;;;;;;28.80;27.07;100368.16;1747876;82;21041;-71
2022/06/16 09:45:44;;;;;;;5.65;1.50;;;;;;;28.36;27.49;100364.38;1760330;80;21505;-73
2022/06/16 09:48:19;;;;;;;3.58;1.67;;;;;;;28.27;27.29;100366.73;1779178;80;21006;-72
2022/06/16 09:50:54;;;;;;;3.37;1.35;;;;;;;28.01;27.57;100373.09;1778721;80;22188;-72
2022/06/16 09:53:39;;;;;;;4.72;1.47;;;;;;;27.66;27.71;100366.83;1778784;80;22204;-71
2022/06/16 09:56:35;;;;;;;3.12;1.40;;;;;;;27.37;28.18;100368.02;1778584;80;21793;-73
2022/06/16 09:59:32;;;;;;;3.58;1.40;;;;;;;27.27;28.29;100374.05;1778522;80;21110;-73
2022/06/16 10:02:08;;;;;;;2.72;1.32;;;;;;;27.15;28.97;100365.84;1778479;80;21624;-72
2022/06/16 10:04:35;;;;;;;2.58;1.20;;;;;;;26.85;30.30;100374.73;1778180;80;21028;-71
2022/06/16 10:07:16;;;;;;;3.72;1.37;;;;;;;26.75;31.00;100375.30;1778549;80;21067;-73
2022/06/16 10:10:07;;;;;;;3.85;1.40;;;;;;;26.71;31.25;100380.19;1765605;80;21041;-71
2022/06/16 10:13:11;;;;;;;6.20;1.67;;;;;;;26.72;31.67;100382.38;1779042;80;21113;-72
2022/06/16 10:15:58;;;;;;;6.33;1.90;;;;;;;26.70;31.98;100374.93;1778799;80;21145;-73
2022/06/16 10:18:24;;;;;;;1.95;1.27;;;;;;;26.60;31.65;100374.17;1779292;80;21069;-72
2022/06/16 10:20:52;;;;;;;1.72;1.05;;;;;;;26.50;31.71;100372.84;1778675;80;21024;-73
2022/06/16 10:23:34;;;;;;;3.58;1.47;;;;;;;26.34;31.85;100371.70;1778720;80;21009;-72
2022/06/16 10:26:04;;;;;;;3.25;1.15;;;;;;;26.31;31.74;100379.25;1778754;80;21725;-72
2022/06/16 10:29:10;;;;;;;7.58;1.80;;;;;;;26.27;31.90;100375.14;1779017;80;25017;-72
2022/06/16 10:31:45;;;;;;;9.13;1.82;;;;;;;26.19;32.29;100379.13;1758209;80;21038;-72
2022/06/16 10:34:35;;;;;;;4.45;1.50;;;;;;;25.99;31.83;100375.17;1748709;80;21601;-73
2022/06/16 10:37:22;;;;;;;3.12;1.52;;;;;;;25.72;32.41;100372.81;1778740;80;21017;-71
2022/06/16 10:40:08;;;;;;;3.15;1.60;;;;;;;25.55;32.75;100364.14;1778480;80;21252;-72
2022/06/16 10:42:46;;;;;;;2.77;1.45;;;;;;;25.51;33.00;100364.08;1748414;80;21060;-71
2022/06/16 10:45:23;;;;;;;5.15;1.57;;;;;;;25.54;32.82;100359.76;1778736;80;21025;-71
2022/06/16 10:48:01;;;;;;;3.35;1.20;;;;;;;25.53;32.81;100359.39;1778725;80;21602;-71
2022/06/16 10:50:34;;;;;;;6.60;1.52;;;;;;;25.47;33.22;100357.31;1778554;80;21834;-71
2022/06/16 10:53:25;;;;;;;3.85;1.35;;;;;;;25.51;32.96;100354.64;1778423;80;21185;-71
2022/06/16 10:56:10;;;;;;;2.10;1.07;;;;;;;25.84;33.02;100351.03;1778865;80;21568;-73
2022/06/16 10:59:00;;;;;;;3.67;1.40;;;;;;;26.45;32.27;100342.77;1778651;80;21041;-72
2022/06/16 11:01:35;;;;;;;1.95;1.12;;;;;;;26.83;30.90;100334.86;1778821;80;21014;-72
2022/06/16 11:04:07;;;;;;;5.67;1.90;;;;;;;26.95;30.02;100343.05;1778089;80;21521;-72
2022/06/16 11:06:38;;;;;;;4.97;1.52;;;;;;;26.94;30.78;100344.06;1778558;80;21138;-72
2022/06/16 11:09:06;;;;;;;4.75;1.25;;;;;;;26.99;30.16;100339.54;1749437;80;21095;-72
2022/06/16 11:11:52;;;;;;;4.03;1.50;;;;;;;26.97;30.21;100349.15;1778539;80;21017;-73
2022/06/16 11:14:33;;;;;;;2.42;1.05;;;;;;;27.02;30.02;100345.13;1778152;80;21354;-71
2022/06/16 11:17:03;;;;;;;2.40;1.20;;;;;;;26.99;29.41;100341.73;1777958;80;21006;-71
2022/06/16 11:19:38;;;;;;;1.72;1.10;;;;;;;26.81;29.85;100340.92;1778935;80;23252;-71
2022/06/16 11:22:16;;;;;;;2.80;1.50;;;;;;;26.79;29.41;100340.23;1778500;80;21632;-73
2022/06/16 11:24:56;;;;;;;3.42;1.35;;;;;;;26.83;29.32;100338.91;1780230;80;21087;-72
2022/06/16 11:27:23;;;;;;;2.92;1.47;;;;;;;26.91;29.17;100340.81;1756084;80;21084;-72
2022/06/16 11:29:49;;;;;;;4.80;1.20;;;;;;;26.97;28.78;100332.94;1784552;80;21481;-72
2022/06/16 11:32:22;;;;;;;2.90;1.10;;;;;;;26.93;27.26;100332.05;1784276;80;21193;-73
2022/06/16 11:34:49;;;;;;;2.90;1.20;;;;;;;26.97;26.75;100335.63;1784447;80;20997;-73
2022/06/16 11:39:37;;;;;;;4.83;1.35;;;;;;;27.23;25.15;100325.35;1796518;79;22449;-73
2022/06/16 11:42:04;;;;;;;3.92;1.55;;;;;;;27.43;26.40;100334.60;1747560;81;21028;-72
2022/06/16 11:44:54;;;;;;;7.00;1.37;;;;;;;27.88;25.69;100330.75;1756323;81;21009;-72
2022/06/16 11:47:55;;;;;;;3.33;1.50;;;;;;;28.24;26.46;100325.42;1663827;85;21596;-73
2022/06/16 11:50:33;;;;;;;3.05;1.50;;;;;;;28.63;25.92;100319.39;1747789;81;21092;-72
2022/06/16 11:53:21;;;;;;;6.87;2.02;;;;;;;28.91;25.07;100325.81;1756496;81;21231;-72
2022/06/16 11:55:59;;;;;;;5.62;1.40;;;;;;;29.14;24.90;100323.78;1756015;81;21001;-72
2022/06/16 11:58:59;;;;;;;4.72;1.52;;;;;;;29.36;24.74;100323.05;1756617;81;21100;-73
2022/06/16 12:01:40;;;;;;;4.45;1.40;;;;;;;29.44;24.43;100316.22;1722856;83;20992;-73
2022/06/16 12:04:38;;;;;;;5.20;1.60;;;;;;;29.56;24.74;100322.63;1722992;83;21087;-71
2022/06/16 12:07:45;;;;;;;3.67;1.52;;;;;;;29.71;23.69;100320.91;1695129;83;21687;-72
2022/06/16 12:10:34;;;;;;;2.40;1.37;;;;;;;29.71;22.82;100314.13;1722409;83;21724;-71
2022/06/16 12:13:22;;;;;;;3.00;1.40;;;;;;;29.88;23.97;100313.00;1722785;83;21467;-73
2022/06/16 12:15:58;;;;;;;6.60;1.67;;;;;;;29.88;23.97;100313.00;1721941;83;21014;-71
2022/06/16 12:19:03;;;;;;;2.58;1.30;;;;;;;30.05;23.64;100308.34;1722418;83;21120;-71
2022/06/16 12:21:44;;;;;;;3.00;1.37;;;;;;;30.17;22.70;100311.48;1722729;83;21040;-72
2022/06/16 12:24:35;;;;;;;2.35;1.40;;;;;;;30.21;23.25;100309.27;1722675;83;21081;-72
2022/06/16 12:27:21;;;;;;;3.40;1.62;;;;;;;30.29;23.43;100301.07;1722121;83;21639;-71
2022/06/16 12:29:59;;;;;;;5.12;1.30;;;;;;;30.35;23.51;100294.09;1696868;84;21097;-71